sensor_id;sensor_type;location;lat;lon;timestamp;pressure;altitude;pressure_sealevel;temperature;humidity
8627;BME280;4351;51.422;6.794;2022-11-15T00:00:29;99837.78;;;10.18;100.00
8627;BME280;4351;51.422;6.794;2022-11-15T00:03:17;99829.28;;;10.11;100.00
8627;BME280;4351;51.422;6.794;2022-11-15T00:06:04;99833.34;;;10.17;100.00
8627;BME280;4351;51.422;6.794;2022-11-15T00:08:51;99847.34;;;10.22;100.00
8627;BME280;4351;51.422;6.794;2022-11-15T00:11:38;99864.69;;;10.31;100.00
8627;BME280;4351;51.422;6.794;2022-11-15T00:14:25;99847.03;;;10.27;100.00
8627;BME280;4351;51.422;6.794;2022-11-15T00:17:13;99829.44;;;10.21;100.00
8627;BME280;4351;51.422;6.794;2022-11-15T00:20:00;99841.63;;;10.27;100.00
8627;BME280;4351;51.422;6.794;2022-11-15T00:22:47;99874.78;;;10.40;100.00
8627;BME280;4351;51.422;6.794;2022-11-15T00:25:34;99873.94;;;10.40;100.00
8627;BME280;4351;51.422;6.794;2022-11-15T00:28:21;99883.25;;;10.47;100.00
8627;BME280;4351;51.422;6.794;2022-11-15T00:31:12;99873.56;;;10.44;100.00
8627;BME280;4351;51.422;6.794;2022-11-15T00:34:00;99870.03;;;10.44;100.00
8627;BME280;4351;51.422;6.794;2022-11-15T00:36:47;99859.47;;;10.41;100.00
8627;BME280;4351;51.422;6.794;2022-11-15T00:39:35;99867.97;;;10.48;100.00
8627;BME280;4351;51.422;6.794;2022-11-15T00:42:21;99874.22;;;10.48;100.00
8627;BME280;4351;51.422;6.794;2022-11-15T00:45:09;99860.00;;;10.46;100.00
8627;BME280;4351;51.422;6.794;2022-11-15T00:47:56;99892.31;;;10.59;100.00
8627;BME280;4351;51.422;6.794;2022-11-15T00:50:45;99911.28;;;10.71;100.00
8627;BME280;4351;51.422;6.794;2022-11-15T00:53:32;99893.81;;;10.63;100.00
8627;BME280;4351;51.422;6.794;2022-11-15T00:56:19;99911.50;;;10.67;100.00
8627;BME280;4351;51.422;6.794;2022-11-15T00:59:07;99921.59;;;10.77;100.00
8627;BME280;4351;51.422;6.794;2022-11-15T01:01:54;99915.97;;;10.80;100.00
8627;BME280;4351;51.422;6.794;2022-11-15T01:04:41;99910.81;;;10.77;100.00
8627;BME280;4351;51.422;6.794;2022-11-15T01:07:29;99894.22;;;10.70;100.00
8627;BME280;4351;51.422;6.794;2022-11-15T01:10:16;99904.44;;;10.78;100.00
8627;BME280;4351;51.422;6.794;2022-11-15T01:13:03;99935.78;;;10.92;100.00
8627;BME280;4351;51.422;6.794;2022-11-15T01:15:51;99923.50;;;10.88;100.00
8627;BME280;4351;51.422;6.794;2022-11-15T01:18:39;99957.53;;;11.02;100.00
8627;BME280;4351;51.422;6.794;2022-11-15T01:21:26;99931.22;;;10.92;100.00
8627;BME280;4351;51.422;6.794;2022-11-15T01:24:15;99936.19;;;10.99;100.00
8627;BME280;4351;51.422;6.794;2022-11-15T01:27:03;99962.47;;;11.08;100.00
8627;BME280;4351;51.422;6.794;2022-11-15T01:29:51;99998.22;;;11.23;100.00
8627;BME280;4351;51.422;6.794;2022-11-15T01:32:38;99958.91;;;11.08;100.00
8627;BME280;4351;51.422;6.794;2022-11-15T01:35:25;99975.41;;;11.16;100.00
8627;BME280;4351;51.422;6.794;2022-11-15T01:38:12;99972.34;;;11.21;100.00
8627;BME280;4351;51.422;6.794;2022-11-15T01:41:01;99964.13;;;11.22;100.00
8627;BME280;4351;51.422;6.794;2022-11-15T01:43:51;99982.56;;;11.29;100.00
8627;BME280;4351;51.422;6.794;2022-11-15T01:46:46;99986.75;;;11.33;100.00
8627;BME280;4351;51.422;6.794;2022-11-15T01:49:35;99952.47;;;11.22;100.00
8627;BME280;4351;51.422;6.794;2022-11-15T01:52:27;99963.78;;;11.27;100.00
8627;BME280;4351;51.422;6.794;2022-11-15T01:55:18;99949.88;;;11.20;100.00
8627;BME280;4351;51.422;6.794;2022-11-15T01:58:10;99938.34;;;11.18;100.00
8627;BME280;4351;51.422;6.794;2022-11-15T02:00:57;99946.56;;;11.17;100.00
8627;BME280;4351;51.422;6.794;2022-11-15T02:03:49;99947.31;;;11.19;100.00
8627;BME280;4351;51.422;6.794;2022-11-15T02:06:39;99963.03;;;11.25;100.00
8627;BME280;4351;51.422;6.794;2022-11-15T02:09:26;99937.47;;;11.18;100.00
8627;BME280;4351;51.422;6.794;2022-11-15T02:12:17;99925.06;;;11.15;100.00
8627;BME280;4351;51.422;6.794;2022-11-15T02:15:08;99983.22;;;11.44;100.00
8627;BME280;4351;51.422;6.794;2022-11-15T02:18:06;99975.25;;;11.42;100.00
8627;BME280;4351;51.422;6.794;2022-11-15T02:21:12;99960.34;;;11.36;100.00
8627;BME280;4351;51.422;6.794;2022-11-15T02:24:16;99966.28;;;11.42;100.00
8627;BME280;4351;51.422;6.794;2022-11-15T02:30:36;99948.06;;;11.32;100.00
8627;BME280;4351;51.422;6.794;2022-11-15T02:33:31;99929.56;;;11.27;100.00
8627;BME280;4351;51.422;6.794;2022-11-15T02:36:30;99971.69;;;11.42;100.00
8627;BME280;4351;51.422;6.794;2022-11-15T02:39:25;100016.41;;;11.57;100.00
8627;BME280;4351;51.422;6.794;2022-11-15T02:42:16;99994.41;;;11.50;100.00
8627;BME280;4351;51.422;6.794;2022-11-15T02:45:24;99986.44;;;11.49;100.00
8627;BME280;4351;51.422;6.794;2022-11-15T02:48:15;99968.84;;;11.43;100.00
8627;BME280;4351;51.422;6.794;2022-11-15T02:51:03;100003.78;;;11.58;100.00
8627;BME280;4351;51.422;6.794;2022-11-15T02:53:50;99982.66;;;11.52;100.00
8627;BME280;4351;51.422;6.794;2022-11-15T02:56:36;99993.81;;;11.58;100.00
8627;BME280;4351;51.422;6.794;2022-11-15T02:59:43;99997.50;;;11.57;100.00
8627;BME280;4351;51.422;6.794;2022-11-15T03:02:52;100002.69;;;11.60;100.00
8627;BME280;4351;51.422;6.794;2022-11-15T03:05:51;100002.69;;;11.60;100.00
8627;BME280;4351;51.422;6.794;2022-11-15T03:08:44;100003.53;;;11.61;100.00
8627;BME280;4351;51.422;6.794;2022-11-15T03:11:37;100011.41;;;11.64;100.00
8627;BME280;4351;51.422;6.794;2022-11-15T03:14:30;100008.84;;;11.63;100.00
8627;BME280;4351;51.422;6.794;2022-11-15T03:17:22;100012.28;;;11.65;100.00
8627;BME280;4351;51.422;6.794;2022-11-15T03:20:11;100014.84;;;11.66;100.00
8627;BME280;4351;51.422;6.794;2022-11-15T03:23:05;100018.16;;;11.70;100.00
8627;BME280;4351;51.422;6.794;2022-11-15T03:25:53;100027.75;;;11.74;100.00
8627;BME280;4351;51.422;6.794;2022-11-15T03:28:44;100047.72;;;11.84;100.00
8627;BME280;4351;51.422;6.794;2022-11-15T03:31:35;100017.81;;;11.75;100.00
8627;BME280;4351;51.422;6.794;2022-11-15T03:34:39;100021.50;;;11.73;100.00
8627;BME280;4351;51.422;6.794;2022-11-15T03:37:33;100045.00;;;11.84;100.00
8627;BME280;4351;51.422;6.794;2022-11-15T03:40:27;100030.75;;;11.82;100.00
8627;BME280;4351;51.422;6.794;2022-11-15T03:43:31;100035.03;;;11.85;100.00
8627;BME280;4351;51.422;6.794;2022-11-15T03:46:23;100049.06;;;11.90;100.00
8627;BME280;4351;51.422;6.794;2022-11-15T03:49:15;100041.91;;;11.89;100.00
8627;BME280;4351;51.422;6.794;2022-11-15T03:52:04;100067.16;;;12.01;100.00
8627;BME280;4351;51.422;6.794;2022-11-15T03:54:54;100079.44;;;12.05;100.00
8627;BME280;4351;51.422;6.794;2022-11-15T03:57:42;100067.03;;;12.03;100.00
8627;BME280;4351;51.422;6.794;2022-11-15T04:00:29;100068.84;;;12.02;100.00
8627;BME280;4351;51.422;6.794;2022-11-15T04:03:15;100088.91;;;12.11;100.00
8627;BME280;4351;51.422;6.794;2022-11-15T04:06:02;100094.72;;;12.18;100.00
8627;BME280;4351;51.422;6.794;2022-11-15T04:08:49;100074.78;;;12.07;100.00
8627;BME280;4351;51.422;6.794;2022-11-15T04:11:35;100079.00;;;12.12;100.00
8627;BME280;4351;51.422;6.794;2022-11-15T04:14:24;100106.28;;;12.20;100.00
8627;BME280;4351;51.422;6.794;2022-11-15T04:17:11;100075.53;;;12.10;100.00
8627;BME280;4351;51.422;6.794;2022-11-15T04:19:58;100084.28;;;12.13;100.00
8627;BME280;4351;51.422;6.794;2022-11-15T04:23:04;100082.44;;;12.14;100.00
8627;BME280;4351;51.422;6.794;2022-11-15T04:26:11;100081.69;;;12.12;100.00
8627;BME280;4351;51.422;6.794;2022-11-15T04:28:58;100092.03;;;12.18;100.00
8627;BME280;4351;51.422;6.794;2022-11-15T04:32:05;100100.16;;;12.18;100.00
8627;BME280;4351;51.422;6.794;2022-11-15T04:34:53;100091.06;;;12.19;100.00
8627;BME280;4351;51.422;6.794;2022-11-15T04:37:40;100124.28;;;12.33;100.00
8627;BME280;4351;51.422;6.794;2022-11-15T04:40:33;100117.88;;;12.34;100.00
8627;BME280;4351;51.422;6.794;2022-11-15T04:43:20;100101.41;;;12.25;100.00
8627;BME280;4351;51.422;6.794;2022-11-15T04:46:07;100089.31;;;12.18;100.00
8627;BME280;4351;51.422;6.794;2022-11-15T04:48:55;100093.63;;;12.21;100.00
8627;BME280;4351;51.422;6.794;2022-11-15T04:51:44;100133.97;;;12.35;100.00
8627;BME280;4351;51.422;6.794;2022-11-15T04:54:31;100141.72;;;12.40;100.00
8627;BME280;4351;51.422;6.794;2022-11-15T04:57:17;100107.53;;;12.27;100.00
8627;BME280;4351;51.422;6.794;2022-11-15T05:00:09;100102.38;;;12.24;100.00
8627;BME280;4351;51.422;6.794;2022-11-15T05:02:57;100114.44;;;12.32;100.00
8627;BME280;4351;51.422;6.794;2022-11-15T05:06:02;100126.00;;;12.34;100.00
8627;BME280;4351;51.422;6.794;2022-11-15T05:08:49;100141.72;;;12.40;100.00
8627;BME280;4351;51.422;6.794;2022-11-15T05:11:36;100118.13;;;12.30;100.00
8627;BME280;4351;51.422;6.794;2022-11-15T05:14:23;100133.38;;;12.32;100.00
8627;BME280;4351;51.422;6.794;2022-11-15T05:17:09;100091.06;;;12.19;100.00
8627;BME280;4351;51.422;6.794;2022-11-15T05:19:56;100104.31;;;12.22;100.00
8627;BME280;4351;51.422;6.794;2022-11-15T05:22:44;100115.66;;;12.27;100.00
8627;BME280;4351;51.422;6.794;2022-11-15T05:25:31;100112.09;;;12.27;100.00
8627;BME280;4351;51.422;6.794;2022-11-15T05:28:18;100087.38;;;12.20;100.00
8627;BME280;4351;51.422;6.794;2022-11-15T05:31:07;100083.09;;;12.17;100.00
8627;BME280;4351;51.422;6.794;2022-11-15T05:33:55;100064.72;;;12.10;100.00
8627;BME280;4351;51.422;6.794;2022-11-15T05:36:43;100071.63;;;12.14;100.00
8627;BME280;4351;51.422;6.794;2022-11-15T05:39:32;100089.22;;;12.20;100.00
8627;BME280;4351;51.422;6.794;2022-11-15T05:42:19;100127.00;;;12.33;100.00
8627;BME280;4351;51.422;6.794;2022-11-15T05:45:08;100089.09;;;12.21;100.00
8627;BME280;4351;51.422;6.794;2022-11-15T05:47:56;100075.31;;;12.13;100.00
8627;BME280;4351;51.422;6.794;2022-11-15T05:50:47;100106.56;;;12.28;100.00
8627;BME280;4351;51.422;6.794;2022-11-15T05:53:34;100080.38;;;12.17;100.00
8627;BME280;4351;51.422;6.794;2022-11-15T05:56:23;100071.13;;;12.20;100.00
8627;BME280;4351;51.422;6.794;2022-11-15T05:59:11;100050.44;;;12.07;100.00
8627;BME280;4351;51.422;6.794;2022-11-15T06:01:58;100072.25;;;12.17;100.00
8627;BME280;4351;51.422;6.794;2022-11-15T06:04:45;100065.13;;;12.16;100.00
8627;BME280;4351;51.422;6.794;2022-11-15T06:07:31;100040.72;;;12.05;100.00
8627;BME280;4351;51.422;6.794;2022-11-15T06:10:20;100052.19;;;12.09;100.00
8627;BME280;4351;51.422;6.794;2022-11-15T06:13:11;100046.88;;;12.07;100.00
8627;BME280;4351;51.422;6.794;2022-11-15T06:16:02;100040.00;;;12.03;100.00
8627;BME280;4351;51.422;6.794;2022-11-15T06:19:07;100069.66;;;12.16;100.00
8627;BME280;4351;51.422;6.794;2022-11-15T06:21:57;100043.56;;;12.03;100.00
8627;BME280;4351;51.422;6.794;2022-11-15T06:24:52;100026.22;;;11.94;100.00
8627;BME280;4351;51.422;6.794;2022-11-15T06:27:51;100044.78;;;11.99;100.00
8627;BME280;4351;51.422;6.794;2022-11-15T06:30:40;100055.13;;;12.05;100.00
8627;BME280;4351;51.422;6.794;2022-11-15T06:33:27;100043.34;;;12.06;100.00
8627;BME280;4351;51.422;6.794;2022-11-15T06:36:14;100048.75;;;12.06;100.00
8627;BME280;4351;51.422;6.794;2022-11-15T06:39:02;100048.75;;;12.06;100.00
8627;BME280;4351;51.422;6.794;2022-11-15T06:41:49;100036.69;;;11.99;100.00
8627;BME280;4351;51.422;6.794;2022-11-15T06:44:36;100061.03;;;12.11;100.00
8627;BME280;4351;51.422;6.794;2022-11-15T06:47:24;100083.91;;;12.18;100.00
8627;BME280;4351;51.422;6.794;2022-11-15T06:50:11;100052.41;;;12.05;100.00
8627;BME280;4351;51.422;6.794;2022-11-15T06:53:01;100054.16;;;12.06;100.00
8627;BME280;4351;51.422;6.794;2022-11-15T06:55:48;100069.03;;;12.12;100.00
8627;BME280;4351;51.422;6.794;2022-11-15T06:58:39;100077.91;;;12.14;100.00
8627;BME280;4351;51.422;6.794;2022-11-15T07:01:26;100065.81;;;12.07;100.00
8627;BME280;4351;51.422;6.794;2022-11-15T07:04:15;100072.34;;;12.04;100.00
8627;BME280;4351;51.422;6.794;2022-11-15T07:07:02;100094.72;;;12.18;100.00
8627;BME280;4351;51.422;6.794;2022-11-15T07:09:48;100079.44;;;12.05;100.00
8627;BME280;4351;51.422;6.794;2022-11-15T07:12:35;100085.72;;;12.06;100.00
8627;BME280;4351;51.422;6.794;2022-11-15T07:15:23;100084.84;;;12.05;100.00
8627;BME280;4351;51.422;6.794;2022-11-15T07:18:10;100101.59;;;12.11;100.00
8627;BME280;4351;51.422;6.794;2022-11-15T07:21:02;100100.84;;;12.09;100.00
8627;BME280;4351;51.422;6.794;2022-11-15T07:23:49;100148.84;;;12.29;100.00
8627;BME280;4351;51.422;6.794;2022-11-15T07:26:35;100135.06;;;12.21;100.00
8627;BME280;4351;51.422;6.794;2022-11-15T07:29:22;100133.59;;;12.17;100.00
8627;BME280;4351;51.422;6.794;2022-11-15T07:32:09;100155.34;;;12.27;100.00
8627;BME280;4351;51.422;6.794;2022-11-15T07:34:55;100136.03;;;12.20;100.00
8627;BME280;4351;51.422;6.794;2022-11-15T07:37:44;100151.78;;;12.26;100.00
8627;BME280;4351;51.422;6.794;2022-11-15T07:40:31;100151.16;;;12.23;100.00
8627;BME280;4351;51.422;6.794;2022-11-15T07:43:17;100176.41;;;12.35;100.00
8627;BME280;4351;51.422;6.794;2022-11-15T07:46:05;100155.69;;;12.22;100.00
8627;BME280;4351;51.422;6.794;2022-11-15T07:48:55;100175.91;;;12.29;100.00
8627;BME280;4351;51.422;6.794;2022-11-15T07:51:41;100148.06;;;12.16;100.00
8627;BME280;4351;51.422;6.794;2022-11-15T07:54:29;100182.03;;;12.32;100.00
8627;BME280;4351;51.422;6.794;2022-11-15T07:57:16;100203.34;;;12.36;100.00
8627;BME280;4351;51.422;6.794;2022-11-15T08:00:05;100223.13;;;12.37;100.00
8627;BME280;4351;51.422;6.794;2022-11-15T08:02:52;100200.56;;;12.25;100.00
8627;BME280;4351;51.422;6.794;2022-11-15T08:05:40;100204.16;;;12.25;100.00
8627;BME280;4351;51.422;6.794;2022-11-15T08:08:27;100111.56;;;11.86;100.00
8627;BME280;4351;51.422;6.794;2022-11-15T08:11:15;100116.75;;;11.89;100.00
8627;BME280;4351;51.422;6.794;2022-11-15T08:14:02;100141.56;;;11.94;100.00
8627;BME280;4351;51.422;6.794;2022-11-15T08:16:49;100073.06;;;11.70;100.00
8627;BME280;4351;51.422;6.794;2022-11-15T08:19:36;100055.72;;;11.61;100.00
8627;BME280;4351;51.422;6.794;2022-11-15T08:22:22;100015.28;;;11.48;100.00
8627;BME280;4351;51.422;6.794;2022-11-15T08:25:09;100049.91;;;11.55;100.00
8627;BME280;4351;51.422;6.794;2022-11-15T08:28:00;100030.53;;;11.49;100.00
8627;BME280;4351;51.422;6.794;2022-11-15T08:30:46;100077.59;;;11.70;100.00
8627;BME280;4351;51.422;6.794;2022-11-15T08:33:33;100047.97;;;11.57;100.00
8627;BME280;4351;51.422;6.794;2022-11-15T08:36:22;100075.78;;;11.70;100.00
8627;BME280;4351;51.422;6.794;2022-11-15T08:39:10;100061.75;;;11.65;100.00
8627;BME280;4351;51.422;6.794;2022-11-15T08:41:58;100045.66;;;11.64;100.00
8627;BME280;4351;51.422;6.794;2022-11-15T08:44:46;100064.09;;;11.70;100.00
8627;BME280;4351;51.422;6.794;2022-11-15T08:47:33;100020.34;;;11.53;100.00
8627;BME280;4351;51.422;6.794;2022-11-15T08:50:20;100024.53;;;11.57;100.00
8627;BME280;4351;51.422;6.794;2022-11-15T08:53:07;100051.81;;;11.66;100.00
8627;BME280;4351;51.422;6.794;2022-11-15T08:55:55;100046.19;;;11.69;100.00
8627;BME280;4351;51.422;6.794;2022-11-15T08:58:42;100054.03;;;11.72;100.00
8627;BME280;4351;51.422;6.794;2022-11-15T09:01:30;100041.75;;;11.68;100.00
8627;BME280;4351;51.422;6.794;2022-11-15T09:04:18;100044.22;;;11.71;100.00
8627;BME280;4351;51.422;6.794;2022-11-15T09:07:04;100055.66;;;11.75;100.00
8627;BME280;4351;51.422;6.794;2022-11-15T09:09:51;100115.81;;;12.01;100.00
8627;BME280;4351;51.422;6.794;2022-11-15T09:12:38;100093.91;;;11.93;100.00
8627;BME280;4351;51.422;6.794;2022-11-15T09:15:25;100174.94;;;12.30;100.00
8627;BME280;4351;51.422;6.794;2022-11-15T09:18:13;100223.66;;;12.53;100.00
8627;BME280;4351;51.422;6.794;2022-11-15T09:21:00;100230.56;;;12.58;100.00
8627;BME280;4351;51.422;6.794;2022-11-15T09:23:50;100284.75;;;12.81;100.00
8627;BME280;4351;51.422;6.794;2022-11-15T09:26:36;100266.03;;;12.78;100.00
8627;BME280;4351;51.422;6.794;2022-11-15T09:29:23;100251.88;;;12.74;100.00
8627;BME280;4351;51.422;6.794;2022-11-15T09:32:10;100246.84;;;12.69;100.00
8627;BME280;4351;51.422;6.794;2022-11-15T09:34:59;100259.66;;;12.79;100.00
8627;BME280;4351;51.422;6.794;2022-11-15T09:37:46;100240.56;;;12.69;100.00
8627;BME280;4351;51.422;6.794;2022-11-15T09:40:40;100272.19;;;12.80;100.00
8627;BME280;4351;51.422;6.794;2022-11-15T09:43:32;100257.03;;;12.77;100.00
8627;BME280;4351;51.422;6.794;2022-11-15T09:46:36;100241.06;;;12.74;100.00
8627;BME280;4351;51.422;6.794;2022-11-15T09:49:18;100254.84;;;12.82;100.00
8627;BME280;4351;51.422;6.794;2022-11-15T09:52:10;100279.84;;;12.97;100.00
8627;BME280;4351;51.422;6.794;2022-11-15T09:54:39;100221.75;;;12.79;100.00
8627;BME280;4351;51.422;6.794;2022-11-15T09:57:33;100198.84;;;12.71;100.00
8627;BME280;4351;51.422;6.794;2022-11-15T10:00:13;100236.16;;;12.91;100.00
8627;BME280;4351;51.422;6.794;2022-11-15T10:03:10;100206.75;;;12.86;100.00
8627;BME280;4351;51.422;6.794;2022-11-15T10:05:41;100231.38;;;12.94;100.00
8627;BME280;4351;51.422;6.794;2022-11-15T10:08:22;100191.63;;;12.83;100.00
8627;BME280;4351;51.422;6.794;2022-11-15T10:11:00;100216.97;;;12.94;100.00
8627;BME280;4351;51.422;6.794;2022-11-15T10:13:50;100175.41;;;12.83;100.00
8627;BME280;4351;51.422;6.794;2022-11-15T10:19:23;100152.38;;;12.78;100.00
8627;BME280;4351;51.422;6.794;2022-11-15T10:22:00;100226.97;;;13.05;100.00
8627;BME280;4351;51.422;6.794;2022-11-15T10:24:35;100213.41;;;13.05;100.00
8627;BME280;4351;51.422;6.794;2022-11-15T10:27:09;100210.94;;;13.02;100.00
8627;BME280;4351;51.422;6.794;2022-11-15T10:29:43;100225.72;;;13.09;100.00
8627;BME280;4351;51.422;6.794;2022-11-15T10:32:14;100224.72;;;13.10;100.00
8627;BME280;4351;51.422;6.794;2022-11-15T10:34:43;100245.66;;;13.19;100.00
8627;BME280;4351;51.422;6.794;2022-11-15T10:37:12;100199.63;;;13.08;100.00
8627;BME280;4351;51.422;6.794;2022-11-15T10:39:41;100279.44;;;13.38;100.00
8627;BME280;4351;51.422;6.794;2022-11-15T10:42:18;100267.22;;;13.32;100.00
8627;BME280;4351;51.422;6.794;2022-11-15T10:44:46;100289.03;;;13.42;100.00
8627;BME280;4351;51.422;6.794;2022-11-15T10:47:26;100319.34;;;13.59;100.00
8627;BME280;4351;51.422;6.794;2022-11-15T10:49:59;100280.78;;;13.44;100.00
8627;BME280;4351;51.422;6.794;2022-11-15T10:52:29;100305.25;;;13.54;100.00
8627;BME280;4351;51.422;6.794;2022-11-15T10:55:03;100283.09;;;13.49;100.00
8627;BME280;4351;51.422;6.794;2022-11-15T10:57:36;100307.50;;;13.60;100.00
8627;BME280;4351;51.422;6.794;2022-11-15T11:00:06;100388.94;;;13.93;100.00
8627;BME280;4351;51.422;6.794;2022-11-15T11:02:36;100357.28;;;13.82;100.00
8627;BME280;4351;51.422;6.794;2022-11-15T11:05:25;100369.34;;;13.89;100.00
8627;BME280;4351;51.422;6.794;2022-11-15T11:07:56;100328.94;;;13.75;100.00
8627;BME280;4351;51.422;6.794;2022-11-15T11:10:27;100434.16;;;14.16;100.00
8627;BME280;4351;51.422;6.794;2022-11-15T11:13:22;100387.72;;;13.97;100.00
8627;BME280;4351;51.422;6.794;2022-11-15T11:15:54;100414.72;;;14.10;100.00
8627;BME280;4351;51.422;6.794;2022-11-15T11:18:27;100430.97;;;14.22;100.00
8627;BME280;4351;51.422;6.794;2022-11-15T11:21:02;100370.31;;;14.00;100.00
8627;BME280;4351;51.422;6.794;2022-11-15T11:23:42;100365.31;;;13.95;100.00
8627;BME280;4351;51.422;6.794;2022-11-15T11:26:33;100377.97;;;14.06;100.00
8627;BME280;4351;51.422;6.794;2022-11-15T11:29:16;100342.00;;;13.93;100.00
8627;BME280;4351;51.422;6.794;2022-11-15T11:31:50;100317.38;;;13.84;100.00
8627;BME280;4351;51.422;6.794;2022-11-15T11:34:34;100327.81;;;13.89;100.00
8627;BME280;4351;51.422;6.794;2022-11-15T11:37:12;100315.41;;;13.86;100.00
8627;BME280;4351;51.422;6.794;2022-11-15T11:39:52;100263.41;;;13.70;100.00
8627;BME280;4351;51.422;6.794;2022-11-15T11:42:31;100286.44;;;13.75;100.00
8627;BME280;4351;51.422;6.794;2022-11-15T11:45:15;100309.25;;;13.84;100.00
8627;BME280;4351;51.422;6.794;2022-11-15T11:47:47;100349.63;;;13.99;100.00
8627;BME280;4351;51.422;6.794;2022-11-15T11:50:18;100272.41;;;13.70;100.00
8627;BME280;4351;51.422;6.794;2022-11-15T11:52:56;100306.25;;;13.87;100.00
8627;BME280;4351;51.422;6.794;2022-11-15T11:55:33;100296.66;;;13.83;100.00
8627;BME280;4351;51.422;6.794;2022-11-15T11:58:12;100310.72;;;13.88;100.00
8627;BME280;4351;51.422;6.794;2022-11-15T12:00:45;100252.69;;;13.68;100.00
8627;BME280;4351;51.422;6.794;2022-11-15T12:03:40;100245.16;;;13.72;100.00
8627;BME280;4351;51.422;6.794;2022-11-15T12:09:57;100220.53;;;13.63;100.00
8627;BME280;4351;51.422;6.794;2022-11-15T12:12:31;100247.78;;;13.73;100.00
8627;BME280;4351;51.422;6.794;2022-11-15T12:15:09;100252.78;;;13.78;100.00
8627;BME280;4351;51.422;6.794;2022-11-15T12:17:41;100292.09;;;13.95;100.00
8627;BME280;4351;51.422;6.794;2022-11-15T12:20:16;100298.09;;;13.99;100.00
8627;BME280;4351;51.422;6.794;2022-11-15T12:22:52;100330.13;;;14.17;100.00
8627;BME280;4351;51.422;6.794;2022-11-15T12:25:25;100342.44;;;14.21;100.00
8627;BME280;4351;51.422;6.794;2022-11-15T12:28:03;100329.25;;;14.16;100.00
8627;BME280;4351;51.422;6.794;2022-11-15T12:31:02;100264.56;;;14.00;100.00
8627;BME280;4351;51.422;6.794;2022-11-15T14:30:53;100060.69;;;13.85;100.00
8627;BME280;4351;51.422;6.794;2022-11-15T14:33:23;100034.25;;;13.77;100.00
8627;BME280;4351;51.422;6.794;2022-11-15T14:36:06;100052.69;;;13.83;100.00
8627;BME280;4351;51.422;6.794;2022-11-15T14:38:39;100048.13;;;13.84;100.00
8627;BME280;4351;51.422;6.794;2022-11-15T14:41:18;100019.22;;;13.73;100.00
8627;BME280;4351;51.422;6.794;2022-11-15T14:43:46;100039.28;;;13.82;100.00
8627;BME280;4351;51.422;6.794;2022-11-15T14:46:16;99983.81;;;13.64;100.00
8627;BME280;4351;51.422;6.794;2022-11-15T14:48:45;100001.22;;;13.72;100.00
8627;BME280;4351;51.422;6.794;2022-11-15T14:51:16;99970.75;;;13.58;100.00
8627;BME280;4351;51.422;6.794;2022-11-15T14:53:45;99957.72;;;13.52;100.00
8627;BME280;4351;51.422;6.794;2022-11-15T14:56:14;99980.63;;;13.59;100.00
8627;BME280;4351;51.422;6.794;2022-11-15T14:58:43;100011.22;;;13.71;100.00
8627;BME280;4351;51.422;6.794;2022-11-15T15:01:14;100008.38;;;13.73;100.00
8627;BME280;4351;51.422;6.794;2022-11-15T15:03:45;100018.69;;;13.79;100.00
8627;BME280;4351;51.422;6.794;2022-11-15T15:06:14;100022.28;;;13.79;100.00
8627;BME280;4351;51.422;6.794;2022-11-15T15:08:44;99952.94;;;13.55;100.00
8627;BME280;4351;51.422;6.794;2022-11-15T15:11:18;99978.09;;;13.67;100.00
8627;BME280;4351;51.422;6.794;2022-11-15T15:13:47;99939.47;;;13.54;100.00
8627;BME280;4351;51.422;6.794;2022-11-15T15:16:15;99997.88;;;13.79;100.00
8627;BME280;4351;51.422;6.794;2022-11-15T15:18:43;99941.69;;;13.60;100.00
8627;BME280;4351;51.422;6.794;2022-11-15T15:21:20;99922.63;;;13.50;100.00
8627;BME280;4351;51.422;6.794;2022-11-15T15:23:49;99940.44;;;13.64;100.00
8627;BME280;4351;51.422;6.794;2022-11-15T15:26:17;99924.69;;;13.58;100.00
8627;BME280;4351;51.422;6.794;2022-11-15T15:28:46;99916.44;;;13.60;100.00
8627;BME280;4351;51.422;6.794;2022-11-15T15:31:15;99906.97;;;13.54;100.00
8627;BME280;4351;51.422;6.794;2022-11-15T15:33:44;99867.53;;;13.40;100.00
8627;BME280;4351;51.422;6.794;2022-11-15T15:36:14;99856.84;;;13.38;100.00
8627;BME280;4351;51.422;6.794;2022-11-15T15:38:46;99895.41;;;13.52;100.00
8627;BME280;4351;51.422;6.794;2022-11-15T15:41:15;99912.16;;;13.57;100.00
8627;BME280;4351;51.422;6.794;2022-11-15T15:43:44;99919.75;;;13.63;100.00
8627;BME280;4351;51.422;6.794;2022-11-15T15:46:14;99898.00;;;13.53;100.00
8627;BME280;4351;51.422;6.794;2022-11-15T15:48:43;99924.03;;;13.66;100.00
8627;BME280;4351;51.422;6.794;2022-11-15T15:51:12;99892.56;;;13.53;100.00
8627;BME280;4351;51.422;6.794;2022-11-15T15:53:51;99881.25;;;13.48;100.00
8627;BME280;4351;51.422;6.794;2022-11-15T15:56:23;99883.84;;;13.50;100.00
8627;BME280;4351;51.422;6.794;2022-11-15T15:58:52;99897.88;;;13.55;100.00
8627;BME280;4351;51.422;6.794;2022-11-15T16:01:22;99877.69;;;13.48;100.00
8627;BME280;4351;51.422;6.794;2022-11-15T16:03:51;99886.44;;;13.51;100.00
8627;BME280;4351;51.422;6.794;2022-11-15T16:06:37;99881.84;;;13.52;100.00
8627;BME280;4351;51.422;6.794;2022-11-15T16:09:12;99861.84;;;13.43;100.00
8627;BME280;4351;51.422;6.794;2022-11-15T16:11:44;99867.88;;;13.47;100.00
8627;BME280;4351;51.422;6.794;2022-11-15T16:14:13;99879.78;;;13.55;100.00
8627;BME280;4351;51.422;6.794;2022-11-15T16:16:41;99819.31;;;13.33;100.00
8627;BME280;4351;51.422;6.794;2022-11-15T16:19:10;99833.19;;;13.40;100.00
8627;BME280;4351;51.422;6.794;2022-11-15T16:21:38;99863.88;;;13.51;100.00
8627;BME280;4351;51.422;6.794;2022-11-15T16:24:06;99812.03;;;13.34;100.00
8627;BME280;4351;51.422;6.794;2022-11-15T16:26:37;99819.91;;;13.37;100.00
8627;BME280;4351;51.422;6.794;2022-11-15T16:29:05;99883.94;;;13.60;100.00
8627;BME280;4351;51.422;6.794;2022-11-15T16:31:35;99833.03;;;13.42;100.00
8627;BME280;4351;51.422;6.794;2022-11-15T16:34:03;99814.63;;;13.36;100.00
8627;BME280;4351;51.422;6.794;2022-11-15T16:36:33;99811.91;;;13.36;100.00
8627;BME280;4351;51.422;6.794;2022-11-15T16:39:02;99850.47;;;13.49;100.00